Time;durP1;ratioP1;P1;durP2;ratioP2;P2;SDS_P1;SDS_P2;PMS_P1;PMS_P2;Temp;Humidity;BMP_temperature;BMP_pressure;BME280_temperature;BME280_humidity;BME280_pressure;Samples;Min_cycle;Max_cycle;Signal;HPM_P1;HPM_P2
2022/08/07 00:01:18;;;;;;;5.78;4.65;;;16.40;99.90;;;;;;5088184;28;20518;-66
2022/08/07 00:04:05;;;;;;;7.75;4.70;;;16.40;99.90;;;;;;5109132;28;20054;-66
2022/08/07 00:06:37;;;;;;;6.55;4.55;;;16.40;99.90;;;;;;5107381;28;20044;-65
2022/08/07 00:09:20;;;;;;;7.03;4.47;;;16.30;99.90;;;;;;5092584;28;20787;-66
2022/08/07 00:11:50;;;;;;;6.13;4.55;;;16.30;99.90;;;;;;5107891;28;20563;-66
2022/08/07 00:14:25;;;;;;;8.57;4.63;;;16.20;99.90;;;;;;5107179;28;20048;-66
2022/08/07 00:16:57;;;;;;;6.22;4.28;;;16.20;99.90;;;;;;5108987;28;20047;-66
2022/08/07 00:19:27;;;;;;;5.93;4.30;;;16.10;99.90;;;;;;5110946;28;20048;-66
2022/08/07 00:22:14;;;;;;;5.97;3.95;;;16.00;99.90;;;;;;5102312;28;20055;-66
2022/08/07 00:25:05;;;;;;;6.15;4.28;;;16.00;99.90;;;;;;5093420;28;20040;-66
2022/08/07 00:27:33;;;;;;;6.75;4.78;;;15.90;99.90;;;;;;5114375;28;20079;-65
2022/08/07 00:30:18;;;;;;;5.75;4.18;;;15.90;99.90;;;;;;5114772;28;20051;-67
2022/08/07 00:32:53;;;;;;;5.32;4.43;;;15.80;99.90;;;;;;5111777;28;20123;-66
2022/08/07 00:35:20;;;;;;;6.22;4.15;;;15.80;99.90;;;;;;5095197;28;20059;-66
2022/08/07 00:37:48;;;;;;;8.43;3.95;;;15.70;99.90;;;;;;5093508;28;21632;-66
2022/08/07 00:40:16;;;;;;;6.13;4.20;;;15.70;99.90;;;;;;5097345;28;20130;-66
2022/08/07 00:43:04;;;;;;;7.75;4.22;;;15.60;99.90;;;;;;5099471;28;20043;-66
2022/08/07 00:45:37;;;;;;;6.85;4.50;;;15.60;99.90;;;;;;5084186;28;20070;-66
2022/08/07 00:48:05;;;;;;;4.93;3.60;;;15.60;99.90;;;;;;5113316;28;20052;-66
2022/08/07 00:50:44;;;;;;;7.70;4.45;;;15.60;99.90;;;;;;5115533;28;20039;-72
2022/08/07 00:53:18;;;;;;;40.65;34.13;;;15.50;99.90;;;;;;5097221;28;20561;-71
2022/08/07 00:55:46;;;;;;;25.58;22.95;;;15.50;99.90;;;;;;5111608;28;20482;-73
2022/08/07 00:58:29;;;;;;;11.05;8.32;;;15.50;99.90;;;;;;5103665;28;20043;-74
2022/08/07 01:00:57;;;;;;;9.70;7.97;;;15.40;99.90;;;;;;5114492;28;21980;-74
2022/08/07 01:03:24;;;;;;;8.85;5.00;;;15.40;99.90;;;;;;5113813;28;20055;-74
2022/08/07 01:06:11;;;;;;;6.40;3.83;;;15.30;99.90;;;;;;5113432;28;20047;-73
2022/08/07 01:08:39;;;;;;;6.30;4.07;;;15.30;99.90;;;;;;5112403;28;20043;-72
2022/08/07 01:11:19;;;;;;;5.68;4.60;;;15.40;99.90;;;;;;5091584;28;20040;-74
2022/08/07 01:14:06;;;;;;;8.77;4.38;;;15.40;99.90;;;;;;5110220;28;20039;-74
2022/08/07 01:16:35;;;;;;;4.72;4.00;;;15.30;99.90;;;;;;5112446;28;20126;-74
2022/08/07 01:19:03;;;;;;;7.72;3.92;;;15.30;99.90;;;;;;5113535;28;20078;-74
2022/08/07 01:21:47;;;;;;;6.72;3.58;;;15.30;99.90;;;;;;5097668;28;20044;-74
2022/08/07 01:24:14;;;;;;;8.68;3.53;;;15.20;99.90;;;;;;5097859;28;20044;-74
2022/08/07 01:26:48;;;;;;;6.40;3.58;;;15.20;99.90;;;;;;5111447;28;20451;-74
2022/08/07 01:29:19;;;;;;;9.95;4.45;;;15.10;99.90;;;;;;5080095;28;20040;-73
2022/08/07 01:31:48;;;;;;;;;;;15.10;99.90;;;;;;5113323;28;20050;-74
2022/08/07 01:34:16;;;;;;;5.15;3.90;;;15.10;99.90;;;;;;5112776;28;19919;-75
2022/08/07 01:36:45;;;;;;;4.93;3.40;;;15.00;99.90;;;;;;5097058;28;20065;-74
2022/08/07 01:39:18;;;;;;;5.65;4.00;;;15.00;99.90;;;;;;5106564;28;20417;-73
2022/08/07 01:41:46;;;;;;;5.13;3.45;;;15.00;99.90;;;;;;5098136;28;20044;-74
2022/08/07 01:44:33;;;;;;;4.43;3.42;;;14.90;99.90;;;;;;5110126;28;20560;-74
2022/08/07 01:47:01;;;;;;;6.90;3.70;;;14.90;99.90;;;;;;5096291;28;20047;-74
2022/08/07 01:49:40;;;;;;;11.60;3.80;;;14.80;99.90;;;;;;5112832;28;20047;-73
2022/08/07 01:52:07;;;;;;;6.00;3.90;;;14.70;99.90;;;;;;5111664;28;20122;-74
2022/08/07 01:54:37;;;;;;;6.20;3.28;;;14.70;99.90;;;;;;5103039;28;20127;-74
2022/08/07 01:57:06;;;;;;;7.60;3.65;;;14.60;99.90;;;;;;5096324;28;20048;-74
2022/08/07 01:59:50;;;;;;;5.03;3.40;;;14.60;99.90;;;;;;5091134;28;20411;-75
2022/08/07 02:02:24;;;;;;;6.80;3.35;;;14.60;99.90;;;;;;5112191;28;20292;-74
2022/08/07 02:05:13;;;;;;;6.55;4.15;;;14.50;99.90;;;;;;5090912;28;20048;-73
2022/08/07 02:08:02;;;;;;;6.63;3.50;;;14.50;99.90;;;;;;5081967;28;20063;-74
2022/08/07 02:10:30;;;;;;;4.93;3.67;;;14.40;99.90;;;;;;5112709;28;20055;-73
2022/08/07 02:12:58;;;;;;;7.32;3.25;;;14.40;99.90;;;;;;5094946;28;20120;-74
2022/08/07 02:15:26;;;;;;;5.95;3.85;;;14.30;99.90;;;;;;5111332;28;20044;-74
2022/08/07 02:17:54;;;;;;;5.30;3.20;;;14.30;99.90;;;;;;5095213;28;20053;-73
2022/08/07 02:20:22;;;;;;;5.47;3.50;;;14.20;99.90;;;;;;5089233;28;20089;-75
2022/08/07 02:23:00;;;;;;;5.80;3.72;;;14.20;99.90;;;;;;5111778;28;20051;-72
2022/08/07 02:25:32;;;;;;;6.38;3.47;;;14.20;99.90;;;;;;5111244;28;20794;-74
2022/08/07 02:28:19;;;;;;;6.40;3.95;;;14.10;99.90;;;;;;5099171;28;20490;-73
2022/08/07 02:30:53;;;;;;;6.78;3.75;;;14.10;99.90;;;;;;5092838;28;20041;-75
2022/08/07 02:33:20;;;;;;;5.15;3.47;;;14.00;99.90;;;;;;5103480;28;20081;-74
2022/08/07 02:35:47;;;;;;;11.65;3.85;;;14.00;99.90;;;;;;5108222;28;20426;-75
2022/08/07 02:38:35;;;;;;;5.05;3.65;;;14.00;99.90;;;;;;5097286;28;20410;-73
2022/08/07 02:41:02;;;;;;;6.20;3.40;;;14.00;99.90;;;;;;5111567;28;20502;-73
2022/08/07 02:43:30;;;;;;;7.07;3.65;;;13.90;99.90;;;;;;5108910;28;20082;-73
2022/08/07 02:45:57;;;;;;;5.35;3.28;;;13.80;99.90;;;;;;5106940;28;20127;-74
2022/08/07 02:48:28;;;;;;;6.68;3.72;;;13.80;99.90;;;;;;5110090;28;20538;-74
2022/08/07 02:50:55;;;;;;;7.65;4.13;;;13.80;99.90;;;;;;5111124;28;20042;-74
2022/08/07 02:53:25;;;;;;;8.00;5.00;;;13.80;99.90;;;;;;5106372;28;20051;-74
2022/08/07 02:55:53;;;;;;;4.57;3.58;;;13.70;99.90;;;;;;5074491;28;20040;-74
2022/08/07 02:58:30;;;;;;;5.85;3.55;;;13.70;99.90;;;;;;5095521;28;20040;-74
2022/08/07 03:00:59;;;;;;;5.30;3.83;;;13.60;99.90;;;;;;5111849;28;20039;-75
2022/08/07 03:03:28;;;;;;;7.03;3.80;;;13.60;99.90;;;;;;5107734;28;20078;-74
2022/08/07 03:06:15;;;;;;;5.82;4.07;;;13.60;99.90;;;;;;5109217;28;20047;-73
2022/08/07 03:09:00;;;;;;;6.63;3.83;;;13.50;99.90;;;;;;5111750;28;20040;-76
2022/08/07 03:11:27;;;;;;;4.53;2.97;;;13.50;99.90;;;;;;5112058;28;20135;-74
2022/08/07 03:13:58;;;;;;;6.85;3.47;;;13.50;99.90;;;;;;5078435;28;20048;-74
2022/08/07 03:16:28;;;;;;;5.95;3.15;;;13.40;99.90;;;;;;5110625;28;20123;-73
2022/08/07 03:18:57;;;;;;;6.75;4.15;;;13.40;99.90;;;;;;5107314;28;20067;-74
2022/08/07 03:21:24;;;;;;;5.53;3.78;;;13.40;99.90;;;;;;5077439;28;20059;-74
2022/08/07 03:23:52;;;;;;;7.35;3.67;;;13.40;99.90;;;;;;5090804;28;20056;-74
2022/08/07 03:26:39;;;;;;;5.87;4.20;;;13.40;99.90;;;;;;5092081;28;20106;-74
2022/08/07 03:29:17;;;;;;;6.43;4.82;;;13.40;99.90;;;;;;5088319;28;20044;-74
2022/08/07 03:31:45;;;;;;;7.22;3.78;;;13.30;99.90;;;;;;5092468;28;20159;-75
2022/08/07 03:34:16;;;;;;;4.90;3.30;;;13.30;99.90;;;;;;5091829;28;20040;-73
2022/08/07 03:36:49;;;;;;;5.75;3.72;;;13.30;99.90;;;;;;5093633;28;20057;-72
2022/08/07 03:39:16;;;;;;;4.55;3.25;;;13.20;99.90;;;;;;5087233;28;20056;-74
2022/08/07 03:42:03;;;;;;;6.00;4.22;;;13.20;99.90;;;;;;5099579;28;20039;-73
2022/08/07 03:44:32;;;;;;;6.47;3.95;;;13.20;99.90;;;;;;5110010;28;20043;-74
2022/08/07 03:47:00;;;;;;;7.32;4.28;;;13.10;99.90;;;;;;5107024;28;20092;-74
2022/08/07 03:49:41;;;;;;;7.43;4.10;;;13.10;99.90;;;;;;5093555;28;20051;-74
2022/08/07 03:52:19;;;;;;;5.72;3.90;;;13.10;99.90;;;;;;5108491;28;20483;-73
2022/08/07 03:54:52;;;;;;;7.63;4.72;;;13.00;99.90;;;;;;5109888;28;20071;-74
2022/08/07 03:57:24;;;;;;;5.38;3.83;;;13.00;99.90;;;;;;5108805;28;20055;-73
2022/08/07 04:00:11;;;;;;;5.25;3.53;;;13.00;99.90;;;;;;5106317;28;20052;-74
2022/08/07 04:02:41;;;;;;;6.53;3.63;;;13.00;99.90;;;;;;5107891;28;20474;-72
2022/08/07 04:05:13;;;;;;;10.05;3.75;;;13.00;99.90;;;;;;5110957;28;20043;-73
2022/08/07 04:07:45;;;;;;;7.03;3.67;;;12.90;99.90;;;;;;5106205;28;20050;-73
2022/08/07 04:10:14;;;;;;;6.78;4.30;;;12.90;99.90;;;;;;5099581;28;20046;-73
2022/08/07 04:12:46;;;;;;;4.10;3.13;;;12.90;99.90;;;;;;5110967;28;20104;-73
2022/08/07 04:15:13;;;;;;;5.70;4.25;;;12.90;99.90;;;;;;5106148;28;20063;-74
2022/08/07 04:17:41;;;;;;;5.35;3.30;;;12.90;99.90;;;;;;5111340;28;20148;-73
2022/08/07 04:20:28;;;;;;;5.55;3.85;;;12.80;99.90;;;;;;5094353;28;20084;-74
2022/08/07 04:22:57;;;;;;;5.25;3.60;;;12.80;99.90;;;;;;5107996;28;20040;-73
2022/08/07 04:25:32;;;;;;;6.28;3.63;;;12.80;99.90;;;;;;5094507;28;20117;-73
2022/08/07 04:28:09;;;;;;;8.55;3.33;;;12.70;99.90;;;;;;5094473;28;20044;-73
2022/08/07 04:30:39;;;;;;;5.43;3.25;;;12.70;99.90;;;;;;5109062;28;20040;-73
2022/08/07 04:33:23;;;;;;;4.97;4.32;;;12.70;99.90;;;;;;5110790;28;20081;-74
2022/08/07 04:35:50;;;;;;;6.97;3.55;;;12.60;99.90;;;;;;5108864;28;20073;-73
2022/08/07 04:38:20;;;;;;;5.15;3.72;;;12.60;99.90;;;;;;5106714;28;20051;-72
2022/08/07 04:40:47;;;;;;;4.75;3.92;;;12.60;99.90;;;;;;5109307;28;20293;-71
2022/08/07 04:43:29;;;;;;;4.93;3.80;;;12.60;99.90;;;;;;5110119;28;20135;-73
2022/08/07 04:46:28;;;;;;;6.50;4.00;;;12.60;99.90;;;;;;5095188;28;20487;-73
2022/08/07 04:49:29;;;;;;;8.98;4.13;;;12.70;99.90;;;;;;5108666;28;20079;-73
2022/08/07 04:52:40;;;;;;;8.40;3.72;;;12.60;99.90;;;;;;5111307;28;20040;-74
2022/08/07 04:55:41;;;;;;;5.18;3.80;;;12.70;99.90;;;;;;5105985;28;20532;-74
2022/08/07 04:58:32;;;;;;;5.75;4.20;;;12.60;99.90;;;;;;5085873;28;20078;-72
2022/08/07 05:01:30;;;;;;;6.35;4.03;;;12.70;99.90;;;;;;5090048;28;20514;-73
2022/08/07 05:04:18;;;;;;;4.10;3.33;;;12.70;99.90;;;;;;5078247;28;20044;-73
2022/08/07 05:06:54;;;;;;;6.57;3.58;;;12.70;99.90;;;;;;5097791;28;20096;-73
2022/08/07 05:09:29;;;;;;;5.32;3.50;;;12.70;99.90;;;;;;5112747;28;20054;-73
2022/08/07 05:12:15;;;;;;;5.93;3.95;;;12.70;99.90;;;;;;5112090;28;20044;-73
2022/08/07 05:15:15;;;;;;;5.80;3.88;;;12.80;99.90;;;;;;5106143;28;20036;-73
2022/08/07 05:17:56;;;;;;;9.45;4.13;;;13.20;99.90;;;;;;5098821;28;20036;-73
2022/08/07 05:20:26;;;;;;;7.15;4.22;;;13.70;99.90;;;;;;5113683;28;20051;-74
2022/08/07 05:22:53;;;;;;;;;;;14.20;99.90;;;;;;5113880;28;20128;-72
2022/08/07 05:25:20;;;;;;;5.80;3.83;;;14.60;99.90;;;;;;5112772;28;19924;-73
2022/08/07 05:28:07;;;;;;;7.28;3.42;;;14.90;99.90;;;;;;5107924;28;20075;-73
2022/08/07 05:30:46;;;;;;;;;;;15.40;99.90;;;;;;5101731;28;20092;-71
2022/08/07 05:33:14;;;;;;;5.53;3.08;;;15.80;99.90;;;;;;5114100;28;19968;-73
2022/08/07 05:35:46;;;;;;;4.25;3.13;;;16.10;99.90;;;;;;5110655;28;20487;-75
2022/08/07 05:38:13;;;;;;;6.57;3.22;;;16.50;99.90;;;;;;5094862;28;20085;-73
2022/08/07 05:41:03;;;;;;;9.68;8.68;;;16.80;99.90;;;;;;5113576;28;20044;-77
2022/08/07 05:43:40;;;;;;;9.02;5.00;;;17.10;99.90;;;;;;5091711;28;20441;-72
2022/08/07 05:46:27;;;;;;;6.22;4.10;;;17.50;99.90;;;;;;5112037;28;20079;-72
2022/08/07 05:48:55;;;;;;;6.55;4.03;;;17.70;99.90;;;;;;5095177;28;20051;-74
2022/08/07 05:51:25;;;;;;;5.30;3.85;;;17.90;99.90;;;;;;5112059;28;20046;-71
2022/08/07 05:53:57;;;;;;;5.55;3.13;;;18.10;99.90;;;;;;5096573;28;20084;-74
2022/08/07 05:56:44;;;;;;;4.63;2.72;;;17.90;99.90;;;;;;5098556;28;20448;-72
2022/08/07 05:59:18;;;;;;;5.05;3.33;;;17.80;99.90;;;;;;5108561;28;20040;-73
2022/08/07 06:01:46;;;;;;;4.82;3.20;;;17.60;99.90;;;;;;5111242;28;20044;-73
2022/08/07 06:04:13;;;;;;;4.47;2.85;;;17.40;99.90;;;;;;5094572;28;20113;-75
2022/08/07 06:06:43;;;;;;;4.75;3.08;;;17.30;99.90;;;;;;5112521;28;20131;-74
2022/08/07 06:09:14;;;;;;;5.32;3.13;;;17.10;99.90;;;;;;5104551;28;20090;-74
2022/08/07 06:11:44;;;;;;;7.93;3.35;;;17.00;99.90;;;;;;5092677;28;20096;-74
2022/08/07 06:14:12;;;;;;;4.40;3.03;;;16.90;99.90;;;;;;5109036;28;20048;-75
2022/08/07 06:16:47;;;;;;;6.63;4.13;;;16.80;99.90;;;;;;5111805;28;20043;-74
2022/08/07 06:19:16;;;;;;;8.43;3.60;;;16.80;99.90;;;;;;5111514;28;20075;-75
2022/08/07 06:22:03;;;;;;;6.68;4.18;;;16.80;99.90;;;;;;5089474;28;20093;-74
2022/08/07 06:24:49;;;;;;;5.28;3.63;;;16.80;99.90;;;;;;5078490;28;20123;-73
2022/08/07 06:27:26;;;;;;;6.15;3.42;;;16.80;99.90;;;;;;5077688;28;20581;-72
2022/08/07 06:30:13;;;;;;;5.93;3.50;;;16.90;99.90;;;;;;5088646;28;20554;-74
2022/08/07 06:33:00;;;;;;;4.53;3.28;;;17.00;99.90;;;;;;5112817;28;20040;-75
2022/08/07 06:35:29;;;;;;;4.35;3.13;;;17.10;99.90;;;;;;5110784;28;20087;-72
2022/08/07 06:38:11;;;;;;;6.13;3.63;;;17.10;99.90;;;;;;5111918;28;20441;-75
2022/08/07 06:40:48;;;;;;;4.50;3.13;;;17.20;99.90;;;;;;5111047;28;20070;-72
2022/08/07 06:43:16;;;;;;;5.45;3.40;;;17.20;99.90;;;;;;5094229;28;20054;-73
2022/08/07 06:45:48;;;;;;;5.63;3.33;;;17.30;99.90;;;;;;5103713;28;20079;-75
2022/08/07 06:48:16;;;;;;;6.20;3.20;;;17.40;99.90;;;;;;5107451;28;20059;-75
2022/08/07 06:50:51;;;;;;;5.20;3.45;;;17.40;99.90;;;;;;5111908;28;20043;-75
2022/08/07 06:53:20;;;;;;;6.90;3.65;;;17.40;99.90;;;;;;5108565;28;20048;-75
2022/08/07 06:56:07;;;;;;;7.22;3.70;;;17.40;99.90;;;;;;5092783;28;20506;-75
2022/08/07 06:58:41;;;;;;;5.75;3.63;;;17.40;99.90;;;;;;5089999;28;20044;-74
2022/08/07 07:01:28;;;;;;;8.45;3.70;;;17.50;99.90;;;;;;5078145;28;20055;-77
2022/08/07 07:04:09;;;;;;;6.70;4.10;;;17.50;99.90;;;;;;5106401;28;20471;-76
2022/08/07 07:06:57;;;;;;;6.15;3.83;;;17.70;99.90;;;;;;5111187;28;20043;-75
2022/08/07 07:09:29;;;;;;;6.60;4.47;;;17.90;99.90;;;;;;5104663;28;20507;-74
2022/08/07 07:12:06;;;;;;;6.85;3.88;;;18.00;99.90;;;;;;5110325;28;20055;-75
2022/08/07 07:15:15;;;;;;;7.03;4.18;;;18.00;99.90;;;;;;5098210;28;20479;-76
2022/08/07 07:18:01;;;;;;;11.60;6.18;;;18.00;99.90;;;;;;5094207;28;20047;-76
2022/08/07 07:20:43;;;;;;;8.27;5.65;;;18.20;99.90;;;;;;5096611;28;20075;-76
2022/08/07 07:23:11;;;;;;;9.88;6.32;;;18.30;99.90;;;;;;5089489;28;20851;-76
2022/08/07 07:26:02;;;;;;;8.32;4.95;;;18.40;99.90;;;;;;5097113;28;20047;-68
2022/08/07 07:28:57;;;;;;;13.55;10.88;;;18.50;99.90;;;;;;5110306;28;20112;-75
2022/08/07 07:31:46;;;;;;;12.20;6.82;;;18.40;99.90;;;;;;5102964;28;20044;-76
2022/08/07 07:34:17;;;;;;;9.55;6.18;;;18.40;99.90;;;;;;5064441;28;20047;-74
2022/08/07 07:36:44;;;;;;;9.77;5.97;;;18.40;99.90;;;;;;5111277;28;20044;-74
2022/08/07 07:39:20;;;;;;;7.80;5.95;;;18.50;99.90;;;;;;5070079;28;20071;-73
2022/08/07 07:41:48;;;;;;;8.75;5.95;;;18.50;99.90;;;;;;5091420;28;20401;-74
2022/08/07 07:44:34;;;;;;;8.55;5.72;;;18.70;99.90;;;;;;5091403;28;20097;-74
2022/08/07 07:47:01;;;;;;;6.65;5.22;;;18.80;99.90;;;;;;5110914;28;20489;-73
2022/08/07 07:49:48;;;;;;;13.07;5.72;;;18.90;99.90;;;;;;5112307;28;20548;-73
2022/08/07 07:52:35;;;;;;;7.57;6.03;;;19.00;99.90;;;;;;5096537;28;20044;-73
2022/08/07 07:55:06;;;;;;;6.28;3.50;;;19.00;99.90;;;;;;5108461;28;20043;-73
2022/08/07 07:57:33;;;;;;;5.93;3.58;;;19.10;99.90;;;;;;5094905;28;20048;-74
2022/08/07 08:00:19;;;;;;;5.05;4.55;;;19.10;99.90;;;;;;5096388;28;20044;-74
2022/08/07 08:03:04;;;;;;;6.07;4.32;;;19.10;99.90;;;;;;5104587;28;20483;-74
2022/08/07 08:05:38;;;;;;;9.77;4.72;;;19.20;99.90;;;;;;5090286;28;20052;-73
2022/08/07 08:08:22;;;;;;;7.57;4.97;;;19.30;99.90;;;;;;5097004;28;20445;-72
2022/08/07 08:11:05;;;;;;;6.97;5.72;;;19.30;99.90;;;;;;5111746;28;20094;-74
2022/08/07 08:13:39;;;;;;;7.72;5.80;;;19.30;99.90;;;;;;5094881;28;20120;-74
2022/08/07 08:16:25;;;;;;;7.88;6.18;;;19.40;99.90;;;;;;5082356;28;20501;-73
2022/08/07 08:18:55;;;;;;;7.72;5.78;;;19.30;99.90;;;;;;5106482;28;20108;-72
2022/08/07 08:27:35;;;;;;;7.28;5.15;;;19.30;99.90;;;;;;5106124;28;20043;-74
2022/08/07 08:30:04;;;;;;;;;;;19.40;99.90;;;;;;5111235;28;20047;-72
2022/08/07 08:32:33;;;;;;;8.73;6.00;;;19.60;99.90;;;;;;5107829;28;19919;-73
2022/08/07 08:35:06;;;;;;;8.60;5.97;;;19.70;99.90;;;;;;5108499;28;20043;-74
2022/08/07 08:37:34;;;;;;;8.20;6.10;;;19.60;99.90;;;;;;5094449;28;20058;-74
2022/08/07 08:40:51;;;;;;;9.77;5.60;;;19.60;99.90;;;;;;5097830;28;20145;-73
2022/08/07 08:43:34;;;;;;;9.45;6.68;;;19.80;99.90;;;;;;5109782;28;20415;-72
2022/08/07 08:46:51;;;;;;;7.82;6.60;;;19.80;99.90;;;;;;5099436;28;20055;-72
2022/08/07 08:49:37;;;;;;;10.13;6.93;;;20.00;99.90;;;;;;5081255;27;20043;-70
2022/08/07 08:52:27;;;;;;;8.57;5.85;;;20.00;99.90;;;;;;5068549;28;20044;-69
2022/08/07 08:55:18;;;;;;;31.63;28.48;;;19.90;99.90;;;;;;5096914;28;20063;-72
2022/08/07 08:58:17;;;;;;;13.15;8.95;;;19.90;99.90;;;;;;5109628;28;20939;-72
2022/08/07 09:01:04;;;;;;;8.05;6.85;;;19.90;99.90;;;;;;5106926;28;20043;-72
2022/08/07 09:03:51;;;;;;;7.35;5.57;;;20.00;99.90;;;;;;5112416;28;20106;-71
2022/08/07 09:06:32;;;;;;;11.50;7.05;;;20.00;99.90;;;;;;5117420;28;20164;-71
2022/08/07 09:09:21;;;;;;;9.53;6.47;;;20.00;99.90;;;;;;5081027;28;20067;-71
2022/08/07 09:12:29;;;;;;;7.25;5.40;;;20.00;99.90;;;;;;5114631;28;20303;-71
2022/08/07 09:15:20;;;;;;;7.80;5.72;;;20.10;99.90;;;;;;5114297;28;20050;-72
2022/08/07 09:18:32;;;;;;;11.02;6.43;;;20.30;99.90;;;;;;5114212;28;20112;-76
2022/08/07 09:21:28;;;;;;;16.67;13.88;;;20.40;99.90;;;;;;5113382;28;20047;-70
2022/08/07 09:24:51;;;;;;;10.27;7.75;;;20.40;99.90;;;;;;5080792;28;20554;-78
2022/08/07 09:27:47;;;;;;;8.00;6.32;;;20.50;99.30;;;;;;5086518;28;20054;-72
2022/08/07 09:30:55;;;;;;;12.15;6.18;;;20.70;99.20;;;;;;5099295;28;20047;-75
2022/08/07 09:33:43;;;;;;;9.38;5.82;;;20.70;98.30;;;;;;5107478;28;20050;-77
2022/08/07 09:36:42;;;;;;;12.82;5.95;;;20.70;98.30;;;;;;5093350;28;20044;-77
2022/08/07 09:39:21;;;;;;;8.65;6.25;;;20.70;97.70;;;;;;5096874;28;20047;-76
2022/08/07 09:42:14;;;;;;;9.82;6.35;;;20.80;98.10;;;;;;5114034;28;20047;-75
2022/08/07 09:44:51;;;;;;;9.52;5.90;;;20.80;97.90;;;;;;5114129;28;20081;-75
2022/08/07 09:48:00;;;;;;;9.98;6.00;;;20.90;98.20;;;;;;5111793;28;20517;-71
2022/08/07 09:50:53;;;;;;;8.32;5.75;;;21.10;98.10;;;;;;5108652;28;20498;-62
2022/08/07 09:53:21;;;;;;;7.68;5.85;;;21.10;96.80;;;;;;5113037;28;20048;-77
2022/08/07 09:55:57;;;;;;;20.25;16.42;;;21.20;95.70;;;;;;5092661;28;20052;-71
2022/08/07 09:59:10;;;;;;;27.38;17.02;;;21.30;96.30;;;;;;5112119;28;20051;-72
2022/08/07 10:01:51;;;;;;;10.73;7.75;;;21.30;96.20;;;;;;5099260;28;20048;-77
2022/08/07 10:04:50;;;;;;;94.82;66.03;;;21.30;95.30;;;;;;5102343;28;20059;-68
2022/08/07 10:07:48;;;;;;;18.17;14.45;;;21.30;95.70;;;;;;5112022;28;20059;-71
2022/08/07 10:10:29;;;;;;;34.30;26.07;;;21.40;94.80;;;;;;5104143;28;20101;-71
2022/08/07 10:13:25;;;;;;;15.02;10.93;;;21.40;94.40;;;;;;5112420;28;20097;-70
2022/08/07 10:16:21;;;;;;;9.27;6.00;;;21.40;94.00;;;;;;5112166;28;20048;-69
2022/08/07 10:19:08;;;;;;;8.43;6.53;;;21.40;93.00;;;;;;5111326;28;20437;-69
2022/08/07 10:21:58;;;;;;;15.70;10.27;;;21.50;91.80;;;;;;5093726;28;20131;-71
2022/08/07 10:24:53;;;;;;;6.80;5.30;;;21.50;90.90;;;;;;5099774;28;20047;-64
2022/08/07 10:27:33;;;;;;;18.10;6.28;;;21.50;89.30;;;;;;5103484;28;20422;-63
2022/08/07 10:30:56;;;;;;;8.52;4.75;;;21.60;90.30;;;;;;5115376;28;20129;-63
2022/08/07 10:33:38;;;;;;;5.97;4.65;;;21.60;86.60;;;;;;5093100;28;20048;-64
2022/08/07 10:36:34;;;;;;;8.80;4.25;;;21.70;88.70;;;;;;5086908;28;20043;-64
2022/08/07 10:39:34;;;;;;;9.80;4.00;;;21.80;87.30;;;;;;5114623;28;20065;-62
2022/08/07 10:42:27;;;;;;;6.67;3.97;;;21.80;85.80;;;;;;5106308;28;20478;-64
2022/08/07 10:45:17;;;;;;;7.55;4.57;;;21.80;87.70;;;;;;5093640;28;20135;-64
2022/08/07 10:48:13;;;;;;;4.97;4.18;;;21.90;86.00;;;;;;5092450;28;20048;-71
2022/08/07 10:50:43;;;;;;;7.30;4.50;;;21.90;87.10;;;;;;5108413;28;20398;-64
2022/08/07 10:53:44;;;;;;;7.75;4.88;;;22.00;85.40;;;;;;5110045;28;20063;-64
2022/08/07 10:56:20;;;;;;;6.85;4.35;;;22.10;85.30;;;;;;5093013;28;20145;-64
2022/08/07 10:59:16;;;;;;;6.53;4.80;;;22.20;85.20;;;;;;5110052;28;20509;-64
2022/08/07 11:01:53;;;;;;;8.02;4.60;;;22.30;83.00;;;;;;5092784;28;20052;-64
2022/08/07 11:04:45;;;;;;;9.23;4.65;;;22.40;82.90;;;;;;5099895;28;20049;-65
2022/08/07 11:07:53;;;;;;;8.63;4.53;;;22.40;83.60;;;;;;5093871;28;20044;-64
2022/08/07 11:10:46;;;;;;;8.05;4.72;;;22.50;82.20;;;;;;5108961;28;20047;-63
2022/08/07 11:13:24;;;;;;;6.05;4.13;;;22.50;82.50;;;;;;5096486;28;20093;-64
2022/08/07 11:16:22;;;;;;;7.10;4.38;;;22.60;81.40;;;;;;5111623;28;20044;-63
2022/08/07 11:18:59;;;;;;;9.23;5.63;;;22.70;79.50;;;;;;5071092;28;20114;-67
2022/08/07 11:21:32;;;;;;;17.23;9.23;;;22.70;80.90;;;;;;5108225;28;20055;-69
2022/08/07 11:24:33;;;;;;;9.77;5.18;;;22.80;81.60;;;;;;5108068;28;20047;-66
2022/08/07 11:27:22;;;;;;;9.57;6.78;;;22.70;78.50;;;;;;5092254;28;20043;-66
2022/08/07 11:30:16;;;;;;;8.07;4.88;;;22.80;79.50;;;;;;5109386;28;20058;-65
2022/08/07 11:33:00;;;;;;;9.57;4.32;;;22.80;79.90;;;;;;5068683;28;20386;-62
2022/08/07 11:35:35;;;;;;;;;;;22.90;78.30;;;;;;5112698;28;20044;-63
2022/08/07 11:38:51;;;;;;;6.00;3.90;;;23.00;77.70;;;;;;5109703;28;20281;-69
2022/08/07 11:41:22;;;;;;;8.00;6.03;;;23.00;77.30;;;;;;5088626;28;20047;-71
2022/08/07 11:44:33;;;;;;;9.63;4.60;;;23.10;77.30;;;;;;5084261;28;20093;-69
2022/08/07 11:47:11;;;;;;;6.25;3.97;;;23.00;77.30;;;;;;5112001;28;20048;-70
2022/08/07 11:49:41;;;;;;;7.68;4.20;;;23.20;75.00;;;;;;5112274;28;20051;-72
2022/08/07 11:52:48;;;;;;;8.43;4.18;;;23.20;76.20;;;;;;5091733;28;20040;-70
2022/08/07 11:55:41;;;;;;;7.43;4.10;;;23.20;74.10;;;;;;5074793;28;20058;-68
2022/08/07 11:59:02;;;;;;;8.00;4.20;;;23.30;75.70;;;;;;5090871;28;20498;-65
2022/08/07 12:02:19;;;;;;;6.63;4.72;;;23.30;74.00;;;;;;5111528;28;20048;-67
2022/08/07 12:05:01;;;;;;;6.97;3.95;;;23.40;72.90;;;;;;5112255;28;20040;-70
2022/08/07 12:08:01;;;;;;;8.90;4.82;;;23.50;74.20;;;;;;5111301;28;20044;-73
2022/08/07 12:11:08;;;;;;;6.15;4.32;;;23.50;72.90;;;;;;5112399;28;20132;-70
2022/08/07 12:13:55;;;;;;;5.70;3.80;;;23.60;71.40;;;;;;5108151;28;20044;-75
2022/08/07 12:16:31;;;;;;;9.38;8.05;;;23.70;71.20;;;;;;5095547;28;20066;-70
2022/08/07 12:19:20;;;;;;;7.97;4.38;;;23.80;70.90;;;;;;5072822;28;20044;-69
2022/08/07 12:21:50;;;;;;;;;;;23.90;69.60;;;;;;5114928;28;20043;-70
2022/08/07 12:28:01;;;;;;;39.60;35.47;;;24.10;71.20;;;;;;5104133;28;20051;-72
2022/08/07 12:30:36;;;;;;;9.02;6.32;;;24.10;69.80;;;;;;5098901;28;20125;-68
2022/08/07 12:33:17;;;;;;;8.60;5.68;;;24.10;69.30;;;;;;5097770;28;20096;-68
2022/08/07 12:35:57;;;;;;;5.57;4.47;;;24.20;69.00;;;;;;5113425;28;20047;-69
2022/08/07 12:38:28;;;;;;;4.30;3.88;;;24.20;68.30;;;;;;5108785;28;20486;-69
2022/08/07 12:41:09;;;;;;;5.25;4.03;;;24.30;68.70;;;;;;5087907;28;20044;-69
2022/08/07 12:43:36;;;;;;;8.02;6.43;;;24.40;69.20;;;;;;5077481;28;20076;-68
2022/08/07 12:47:17;;;;;;;5.35;3.50;;;24.50;70.00;;;;;;5104582;28;20088;-72
2022/08/07 12:50:28;;;;;;;7.63;6.53;;;24.40;67.10;;;;;;5049545;28;20420;-68
2022/08/07 12:53:26;;;;;;;10.80;6.07;;;24.40;69.00;;;;;;5021836;28;20064;-68
2022/08/07 12:56:11;;;;;;;10.65;4.40;;;24.60;68.20;;;;;;5094873;28;20048;-68
2022/08/07 12:58:43;;;;;;;5.55;3.88;;;24.50;68.20;;;;;;5081668;28;20406;-73
2022/08/07 13:01:28;;;;;;;108.25;98.55;;;24.60;68.70;;;;;;5111450;27;20047;-68
2022/08/07 13:04:24;;;;;;;67.72;60.92;;;24.60;68.40;;;;;;5098593;28;20122;-67
2022/08/07 13:07:37;;;;;;;13.40;11.73;;;24.70;69.60;;;;;;5114083;28;20074;-67
2022/08/07 13:10:43;;;;;;;9.73;7.70;;;24.80;67.50;;;;;;5115159;28;20047;-68
2022/08/07 13:13:48;;;;;;;8.13;3.88;;;24.80;68.20;;;;;;5093140;28;20130;-67
2022/08/07 13:16:53;;;;;;;6.30;4.00;;;24.90;67.90;;;;;;5103894;28;20075;-67
2022/08/07 13:19:41;;;;;;;5.13;3.42;;;24.90;67.70;;;;;;5095798;28;20159;-67
2022/08/07 13:22:31;;;;;;;5.72;3.15;;;24.90;67.20;;;;;;5101679;28;20079;-69
2022/08/07 13:25:28;;;;;;;4.22;3.03;;;25.00;67.00;;;;;;5096087;28;20051;-68
2022/08/07 13:28:06;;;;;;;5.13;3.45;;;25.00;65.70;;;;;;5119981;27;20047;-66
2022/08/07 13:30:42;;;;;;;8.60;5.13;;;25.00;67.10;;;;;;5096499;28;20044;-70
2022/08/07 13:33:32;;;;;;;;;;;25.10;66.00;;;;;;5077120;28;20437;-70
2022/08/07 13:36:29;;;;;;;5.53;3.65;;;25.20;65.50;;;;;;5096447;28;20323;-73
2022/08/07 13:39:03;;;;;;;30.70;4.88;;;25.20;65.40;;;;;;5112520;28;20208;-65
2022/08/07 13:41:43;;;;;;;6.20;2.88;;;25.20;66.00;;;;;;5094888;28;20052;-63
2022/08/07 13:44:16;;;;;;;5.72;3.00;;;25.40;66.10;;;;;;5111096;28;20043;-63
2022/08/07 13:46:56;;;;;;;4.53;3.03;;;25.50;65.20;;;;;;5113921;28;20062;-64
2022/08/07 13:49:27;;;;;;;4.55;3.35;;;25.50;65.20;;;;;;5113168;28;20134;-64
2022/08/07 13:52:14;;;;;;;4.47;3.00;;;25.40;65.20;;;;;;5112488;28;20044;-64
2022/08/07 13:55:05;;;;;;;4.75;2.75;;;25.50;65.20;;;;;;5098620;28;20100;-63
2022/08/07 13:57:38;;;;;;;5.65;3.13;;;25.50;65.30;;;;;;5096221;28;20044;-63
2022/08/07 14:00:34;;;;;;;12.10;3.13;;;25.40;64.80;;;;;;5092146;28;20044;-63
2022/08/07 14:03:26;;;;;;;3.95;2.50;;;25.50;65.00;;;;;;5081475;28;20063;-63
2022/08/07 14:06:12;;;;;;;5.05;2.67;;;25.60;65.60;;;;;;5089813;28;20498;-63
2022/08/07 14:08:44;;;;;;;5.90;2.75;;;25.80;65.30;;;;;;5074923;28;20090;-63
2022/08/07 14:11:20;;;;;;;3.97;2.63;;;26.00;64.50;;;;;;5097071;28;20376;-65